createdAt,value
2022-11-08T00:07:13.851Z,0.00
2022-11-08T00:17:14.467Z,0.00
2022-11-08T00:27:14.449Z,0.00
2022-11-08T00:37:14.596Z,0.00
2022-11-08T00:47:14.635Z,0.00
2022-11-08T00:57:14.933Z,0.00
2022-11-08T01:07:14.974Z,0.00
2022-11-08T01:17:15.293Z,0.00
2022-11-08T01:27:15.376Z,0.00
2022-11-08T01:37:15.458Z,0.00
2022-11-08T01:47:15.483Z,0.00
2022-11-08T01:57:15.791Z,0.00
2022-11-08T02:07:15.809Z,0.00
2022-11-08T02:17:16.138Z,0.00
2022-11-08T02:27:16.176Z,0.00
2022-11-08T02:37:16.505Z,0.00
2022-11-08T02:47:16.549Z,0.00
2022-11-08T02:57:16.850Z,0.00
2022-11-08T03:07:20.747Z,0.00
2022-11-08T03:17:17.957Z,0.00
2022-11-08T03:27:17.261Z,0.00
2022-11-08T03:37:17.312Z,0.00
2022-11-08T03:47:17.608Z,0.00
2022-11-08T03:57:17.626Z,0.00
2022-11-08T04:07:17.955Z,0.00
2022-11-08T04:17:18.020Z,0.00
2022-11-08T04:27:18.310Z,0.00
2022-11-08T04:37:18.348Z,0.00
2022-11-08T04:47:18.679Z,0.00
2022-11-08T04:57:18.741Z,0.00
2022-11-08T05:07:18.914Z,0.00
2022-11-08T05:17:18.950Z,0.00
2022-11-08T05:27:19.258Z,0.00
2022-11-08T05:37:19.295Z,0.00
2022-11-08T05:47:19.603Z,0.00
2022-11-08T05:57:22.086Z,0.00
2022-11-08T06:07:20.468Z,0.00
2022-11-08T06:17:20.066Z,0.00
2022-11-08T06:27:21.849Z,0.00
2022-11-08T06:37:20.289Z,0.00
2022-11-08T06:47:24.042Z,5.62
2022-11-08T06:57:20.674Z,11.25
2022-11-08T07:07:21.017Z,11.25
2022-11-08T07:17:21.046Z,11.25
2022-11-08T07:27:21.360Z,11.25
2022-11-08T07:37:21.388Z,11.25
2022-11-08T07:47:21.712Z,11.25
2022-11-08T07:57:21.784Z,16.88
2022-11-08T08:07:21.887Z,11.25
2022-11-08T08:17:21.986Z,50.62
2022-11-08T08:27:22.158Z,61.88
2022-11-08T08:37:22.257Z,73.12
2022-11-08T08:47:22.342Z,84.38
2022-11-08T08:57:22.473Z,101.25
2022-11-08T09:07:22.924Z,84.38
2022-11-08T09:17:22.903Z,84.38
2022-11-08T09:27:23.047Z,101.25
2022-11-08T09:37:23.066Z,56.25
2022-11-08T09:47:23.399Z,78.75
2022-11-08T09:57:23.452Z,135.00
2022-11-08T10:07:23.837Z,135.00
2022-11-08T10:17:23.928Z,146.25
2022-11-08T10:27:24.215Z,112.50
2022-11-08T10:37:24.232Z,129.38
2022-11-08T10:47:24.763Z,84.38
2022-11-08T10:57:24.690Z,118.12
2022-11-08T11:07:25.009Z,140.62
2022-11-08T11:27:25.038Z,157.50
2022-11-08T11:37:25.062Z,151.88
2022-11-08T11:47:25.396Z,157.50
2022-11-08T11:57:25.420Z,157.50
2022-11-08T12:07:25.783Z,140.62
2022-11-08T12:17:25.920Z,151.88
2022-11-08T12:27:26.815Z,135.00
2022-11-08T12:37:26.038Z,67.50
2022-11-08T12:47:26.695Z,129.38
2022-11-08T12:57:26.361Z,140.62
2022-11-08T13:07:26.704Z,95.62
2022-11-08T13:17:26.733Z,45.00
2022-11-08T13:27:27.046Z,61.88
2022-11-08T13:37:27.119Z,33.75
2022-11-08T13:47:27.160Z,33.75
2022-11-08T13:57:27.411Z,28.12
2022-11-08T14:07:27.780Z,22.50
2022-11-08T14:17:27.861Z,22.50
2022-11-08T14:27:28.014Z,16.88
2022-11-08T14:37:28.076Z,16.88
2022-11-08T14:47:28.348Z,16.88
2022-11-08T14:57:28.780Z,11.25
2022-11-08T15:07:29.569Z,5.62
2022-11-08T15:17:29.375Z,5.62
2022-11-08T15:27:29.161Z,0.00
2022-11-08T15:37:30.659Z,0.00
2022-11-08T15:47:29.729Z,0.00
2022-11-08T15:57:31.922Z,0.00
2022-11-08T16:07:29.870Z,0.00
2022-11-08T16:17:30.168Z,0.00
2022-11-08T16:27:30.452Z,0.00
2022-11-08T16:37:30.427Z,0.00
2022-11-08T16:47:31.261Z,0.00
2022-11-08T16:57:35.740Z,0.00
2022-11-08T17:07:30.612Z,0.00
2022-11-08T17:17:31.022Z,0.00
2022-11-08T17:27:30.978Z,0.00
2022-11-08T17:37:31.263Z,0.00
2022-11-08T17:47:31.256Z,0.00
2022-11-08T17:57:31.572Z,0.00
2022-11-08T18:07:32.538Z,0.00
2022-11-08T18:17:32.062Z,0.00
2022-11-08T18:27:31.820Z,0.00
2022-11-08T18:37:32.621Z,0.00
2022-11-08T18:47:33.046Z,0.00
2022-11-08T18:57:32.756Z,0.00
2022-11-08T19:07:45.883Z,0.00
2022-11-08T19:17:32.606Z,0.00
2022-11-08T19:27:33.211Z,0.00
2022-11-08T19:37:33.213Z,0.00
2022-11-08T19:47:33.461Z,0.00
2022-11-08T19:57:33.657Z,0.00
2022-11-08T20:07:37.961Z,0.00
2022-11-08T20:17:33.966Z,0.00
2022-11-08T20:27:34.254Z,0.00
2022-11-08T20:37:34.211Z,0.00
2022-11-08T20:47:36.377Z,0.00
2022-11-08T20:57:34.578Z,0.00
2022-11-08T21:12:21.312Z,0.00
2022-11-08T21:18:56.525Z,0.00
2022-11-08T21:28:56.497Z,0.00
2022-11-08T21:38:56.745Z,0.00
2022-11-08T21:48:56.848Z,0.00
2022-11-08T21:58:56.861Z,0.00
